Atwood, Indiana
Current Conditions -  °F | °C
As of 1:15 PM on Thursday 29 Jan 2015 (Local Time) from KASW Reporting Station
Drizzle Drizzle  
Wind Chill: -5°   Ceiling: 1100
Heat Index:   Visibility: 3mi
Dew Point:   Wind: 18mph
Humidity: 93%   Direction: 310°NW
Pressure: 29.8"   Gusts: 22mph
Location:  41.26°N, 85.98°W
Report Text: KASW 291815Z AUTO 31016G19KT 3SM -DZ OVC011 01/00 A2980 RMK AO2
Loading
Personal Weather Stations






























Interactive Weather Map New forecast layout! Learn more

10-Day Weather Forecast

Advertisements
Track Severe Weather on mobile